Atterraggio mancato a Salisburgo - Plane In Failed Crosswind Landing at Salzburg

Un Boeing 737-800 della compagnia polacca Enter Air  partito da Francoforte ha cercato di atterrare all'aeroporto di Salisburgo in data 29 ottobre alle ore 19.12Z, ma a causa del forte vento, portato dalla tempesta Herwart, la manovra è fallita. La Torre riporta condimeteo con venti da 271 gradi a 24 nodi con raffiche di 40 nodi. Il "failure to land" è stato anche riportato dal sito Aviation Herald http://avherald.com/h?article=4b054ccf.
Appena qualche minuto prima dell'atterraggio il metar segnalava:  
LOWS 290920Z 27024G40KT 230V310 9999 FEW035 BKN045 14/07 Q1003 TEMPO 30035KT 4000 SHRA
Se vuoi decodificare la stringa metar vai nella sidebar del mio blog o clicca qui.
Relativamente alla tecnica di atterraggio con vento al traverso suggerisco di leggere un mio precedente post 

An Enter Air Boeing 737-800, registration SP-ESA performing flight E4-503 from Frankfurt/Main (Germany) to Salzburg (Austria) on October 29 at 19.12Z time, was on approach to Salzburg while a storm system was affecting large parts of Europe, tower reported the surface winds from 270 degrees at 24 knots gusting 40 knots. Failure to land was also reported by the site Aviation Herald. Just a few minutes before the landing metar was reported:
LOWS 290920Z 27024G40KT 230V310 9999 FEW035 BKN045 14/07 Q1003 TEMPO 30035KT 4000 SHRA
If you want to decode the metar string go to the sidebar of my blog or click here.










Nessun commento:

Posta un commento

Related Posts Plugin for WordPress, Blogger...